createdAt,value
2019-02-19T00:01:12.650Z,4.20
2019-02-19T00:03:41.973Z,4.20
2019-02-19T00:06:13.303Z,4.10
2019-02-19T00:08:44.515Z,4.10
2019-02-19T00:11:14.046Z,4.10
2019-02-19T00:13:44.286Z,4.10
2019-02-19T00:16:16.918Z,4.10
2019-02-19T00:18:46.223Z,4.10
2019-02-19T00:21:15.685Z,4.10
2019-02-19T00:23:45.191Z,4.00
2019-02-19T00:26:21.634Z,4.00
2019-02-19T00:28:50.805Z,4.00
2019-02-19T00:31:20.240Z,3.90
2019-02-19T00:33:49.440Z,3.90
2019-02-19T00:36:18.831Z,3.80
2019-02-19T00:38:49.977Z,3.80
2019-02-19T00:41:20.329Z,3.70
2019-02-19T00:43:50.635Z,3.70
2019-02-19T00:46:20.959Z,3.60
2019-02-19T00:48:50.160Z,3.60
2019-02-19T00:51:19.558Z,3.60
2019-02-19T00:53:49.063Z,3.50
2019-02-19T00:56:18.292Z,3.50
2019-02-19T00:58:47.662Z,3.50
2019-02-19T01:01:16.894Z,3.40
2019-02-19T01:03:46.367Z,3.40
2019-02-19T01:06:15.838Z,3.40
2019-02-19T01:08:46.096Z,3.40
2019-02-19T01:11:18.164Z,3.40
2019-02-19T01:13:47.569Z,3.40
2019-02-19T01:16:16.794Z,3.30
2019-02-19T01:18:47.013Z,3.30
2019-02-19T01:21:16.528Z,3.20
2019-02-19T01:23:46.028Z,3.20
2019-02-19T01:26:15.539Z,3.20
2019-02-19T01:28:45.003Z,3.20
2019-02-19T01:31:14.233Z,3.20
2019-02-19T01:33:43.634Z,3.10
2019-02-19T01:36:13.124Z,3.20
2019-02-19T01:38:42.617Z,3.10
2019-02-19T01:41:12.968Z,3.10
2019-02-19T01:43:42.447Z,3.10
2019-02-19T01:46:11.955Z,3.00
2019-02-19T01:48:41.145Z,3.00
2019-02-19T01:51:10.549Z,3.00
2019-02-19T01:53:39.750Z,2.90
2019-02-19T01:56:09.251Z,2.90
2019-02-19T01:58:38.671Z,2.90
2019-02-19T02:01:08.041Z,2.80
2019-02-19T02:03:37.323Z,2.80
2019-02-19T02:06:08.038Z,2.70
2019-02-19T02:08:37.506Z,2.70
2019-02-19T02:11:06.708Z,2.70
2019-02-19T02:13:36.110Z,2.70
2019-02-19T02:16:05.355Z,2.60
2019-02-19T02:18:34.774Z,2.60
2019-02-19T02:21:04.286Z,2.60
2019-02-19T02:23:33.817Z,2.60
2019-02-19T02:26:05.375Z,2.50
2019-02-19T02:28:36.823Z,2.50
2019-02-19T02:31:07.145Z,2.50
2019-02-19T02:33:36.346Z,2.50
2019-02-19T02:36:05.771Z,2.60
2019-02-19T02:38:35.281Z,2.50
2019-02-19T02:41:07.699Z,2.40
2019-02-19T02:43:37.135Z,2.40
2019-02-19T02:46:06.310Z,2.40
2019-02-19T02:48:35.770Z,2.30
2019-02-19T02:51:05.238Z,2.30
2019-02-19T02:53:35.567Z,2.30
2019-02-19T02:56:05.915Z,2.30
2019-02-19T02:58:35.396Z,2.20
2019-02-19T03:01:04.555Z,2.30
2019-02-19T03:03:34.219Z,2.20
2019-02-19T03:06:05.589Z,2.20
2019-02-19T03:08:35.218Z,2.20
2019-02-19T03:11:04.667Z,2.20
2019-02-19T03:13:34.121Z,2.20
2019-02-19T03:16:03.576Z,2.20
2019-02-19T03:18:33.277Z,2.20
2019-02-19T03:21:03.397Z,2.20
2019-02-19T03:23:32.733Z,2.20
2019-02-19T03:26:04.146Z,2.20
2019-02-19T03:28:33.988Z,2.20
2019-02-19T03:31:03.463Z,2.20
2019-02-19T03:33:33.996Z,2.20
2019-02-19T03:36:03.298Z,2.20
2019-02-19T03:38:32.649Z,2.10
2019-02-19T03:41:01.935Z,2.00
2019-02-19T03:43:31.475Z,2.00
2019-02-19T03:46:00.916Z,2.00
2019-02-19T03:48:30.178Z,2.00
2019-02-19T03:50:59.523Z,2.10
2019-02-19T03:53:28.682Z,2.00
2019-02-19T03:55:58.143Z,2.00
2019-02-19T03:58:27.707Z,2.00
2019-02-19T04:00:57.183Z,2.00
2019-02-19T04:03:26.454Z,2.00
2019-02-19T04:05:55.877Z,2.00
2019-02-19T04:08:25.323Z,1.90
2019-02-19T04:10:56.029Z,1.90
2019-02-19T04:13:25.467Z,1.90
2019-02-19T04:15:56.620Z,1.80
2019-02-19T04:18:25.851Z,1.80
2019-02-19T04:20:55.228Z,1.80
2019-02-19T04:23:24.725Z,1.80
2019-02-19T04:25:53.927Z,1.80
2019-02-19T04:28:23.358Z,1.80
2019-02-19T04:30:53.663Z,1.70
2019-02-19T04:33:23.165Z,1.70
2019-02-19T04:35:52.670Z,1.70
2019-02-19T04:38:22.993Z,1.60
2019-02-19T04:40:52.205Z,1.70
2019-02-19T04:43:21.594Z,1.60
2019-02-19T04:45:51.091Z,1.60
2019-02-19T04:48:20.379Z,1.60
2019-02-19T04:50:49.687Z,1.60
2019-02-19T04:53:18.859Z,1.60
2019-02-19T04:55:48.307Z,1.50
2019-02-19T04:58:18.628Z,1.50
2019-02-19T05:00:50.652Z,1.50
2019-02-19T05:03:19.833Z,1.50
2019-02-19T05:05:49.177Z,1.50
2019-02-19T05:08:18.352Z,1.50
2019-02-19T05:10:47.983Z,1.50
2019-02-19T05:13:18.969Z,1.50
2019-02-19T05:15:48.429Z,1.50
2019-02-19T05:18:17.711Z,1.40
2019-02-19T05:20:47.024Z,1.40
2019-02-19T05:23:16.255Z,1.40
2019-02-19T05:25:45.683Z,1.40
2019-02-19T05:28:15.129Z,1.40
2019-02-19T05:30:44.290Z,1.30
2019-02-19T05:33:13.768Z,1.40
2019-02-19T05:35:43.255Z,1.40
2019-02-19T05:38:18.478Z,1.40
2019-02-19T05:40:47.668Z,1.40
2019-02-19T05:43:21.180Z,1.50
2019-02-19T05:45:50.352Z,1.50
2019-02-19T05:48:21.457Z,1.50
2019-02-19T05:50:51.004Z,1.50
2019-02-19T05:53:22.487Z,1.60
2019-02-19T05:55:52.018Z,1.60
2019-02-19T05:58:21.493Z,1.60
2019-02-19T06:00:50.664Z,1.70
2019-02-19T06:03:20.116Z,1.70
2019-02-19T06:05:49.748Z,1.70
2019-02-19T06:08:19.931Z,1.70
2019-02-19T06:10:49.119Z,1.70
2019-02-19T06:13:18.538Z,1.60
2019-02-19T06:15:48.903Z,1.70
2019-02-19T06:18:18.378Z,1.70
2019-02-19T06:20:47.859Z,1.70
2019-02-19T06:23:17.354Z,1.70
2019-02-19T06:25:52.636Z,1.80
2019-02-19T06:28:22.104Z,1.80
2019-02-19T06:30:51.346Z,1.80
2019-02-19T06:33:20.740Z,1.90
2019-02-19T06:35:50.216Z,2.00
2019-02-19T06:38:20.529Z,2.00
2019-02-19T06:40:49.735Z,2.10
2019-02-19T06:43:19.137Z,2.20
2019-02-19T06:45:49.465Z,2.20
2019-02-19T06:48:18.656Z,2.30
2019-02-19T06:50:48.069Z,2.40
2019-02-19T06:53:17.240Z,2.40
2019-02-19T06:55:46.716Z,2.50
2019-02-19T06:58:16.163Z,2.60
2019-02-19T07:00:45.340Z,2.70
2019-02-19T07:03:16.443Z,2.80
2019-02-19T07:05:45.603Z,2.80
2019-02-19T07:08:15.049Z,2.90
2019-02-19T07:10:44.559Z,3.00
2019-02-19T07:13:14.085Z,3.10
2019-02-19T07:15:46.086Z,3.10
2019-02-19T07:18:16.371Z,3.10
2019-02-19T07:20:59.403Z,3.20
2019-02-19T07:23:28.899Z,3.30
2019-02-19T07:25:58.359Z,3.40
2019-02-19T07:28:29.487Z,3.50
2019-02-19T07:31:00.661Z,3.50
2019-02-19T07:33:30.952Z,3.60
2019-02-19T07:36:01.291Z,3.60
2019-02-19T07:38:30.843Z,3.80
2019-02-19T07:41:00.289Z,3.90
2019-02-19T07:43:31.433Z,4.00
2019-02-19T07:46:01.875Z,4.00
2019-02-19T07:48:40.415Z,4.20
2019-02-19T07:51:09.819Z,4.30
2019-02-19T07:53:39.281Z,4.50
2019-02-19T07:56:08.523Z,4.50
2019-02-19T07:58:37.718Z,4.60
2019-02-19T08:01:07.068Z,4.70
2019-02-19T08:03:37.335Z,4.80
2019-02-19T08:06:06.615Z,5.00
2019-02-19T08:08:35.915Z,5.00
2019-02-19T08:11:06.304Z,5.10
2019-02-19T08:13:35.759Z,5.30
2019-02-19T08:16:05.427Z,5.60
2019-02-19T08:18:37.248Z,6.00
2019-02-19T08:21:06.750Z,6.70
2019-02-19T08:23:38.284Z,7.30
2019-02-19T08:26:07.541Z,8.00
2019-02-19T08:28:37.298Z,8.70
2019-02-19T08:31:06.796Z,9.50
2019-02-19T08:33:35.970Z,10.00
2019-02-19T08:36:05.435Z,10.40
2019-02-19T08:38:36.953Z,10.90
2019-02-19T08:41:06.517Z,11.40
2019-02-19T08:43:38.053Z,12.10
2019-02-19T08:46:08.333Z,12.00
2019-02-19T08:48:39.478Z,11.60
2019-02-19T08:51:08.997Z,12.00
2019-02-19T08:53:38.495Z,12.40
2019-02-19T08:56:07.982Z,12.70
2019-02-19T08:58:37.171Z,12.90
2019-02-19T09:01:06.593Z,12.40
2019-02-19T09:03:35.767Z,12.60
2019-02-19T09:06:05.244Z,12.60
2019-02-19T09:08:34.703Z,12.50
2019-02-19T09:11:03.934Z,12.50
2019-02-19T09:13:33.684Z,12.20
2019-02-19T09:16:02.840Z,12.40
2019-02-19T09:18:32.580Z,12.60
2019-02-19T09:21:01.945Z,12.50
2019-02-19T09:23:31.319Z,12.70
2019-02-19T09:26:00.814Z,12.60
2019-02-19T09:28:31.187Z,13.00
2019-02-19T09:31:00.669Z,13.40
2019-02-19T09:33:30.167Z,14.10
2019-02-19T09:35:59.677Z,14.50
2019-02-19T09:38:29.179Z,14.50
2019-02-19T09:40:58.423Z,15.00
2019-02-19T09:43:35.355Z,15.00
2019-02-19T09:45:59.113Z,15.30
2019-02-19T09:48:29.737Z,15.70
2019-02-19T09:50:59.280Z,15.90
2019-02-19T09:53:28.661Z,16.20
2019-02-19T09:55:57.902Z,15.90
2019-02-19T09:58:28.112Z,16.00
2019-02-19T10:00:57.583Z,15.60
2019-02-19T10:03:26.934Z,15.80
2019-02-19T10:05:57.457Z,15.60
2019-02-19T10:08:26.828Z,15.10
2019-02-19T10:10:58.172Z,14.80
2019-02-19T10:13:27.594Z,14.20
2019-02-19T10:15:57.104Z,13.70
2019-02-19T10:18:26.579Z,14.20
2019-02-19T10:20:55.786Z,14.10
2019-02-19T10:23:25.191Z,14.70
2019-02-19T10:25:54.375Z,14.60
2019-02-19T10:28:24.622Z,14.10
2019-02-19T10:30:54.130Z,14.30
2019-02-19T10:33:23.610Z,14.40
2019-02-19T10:35:53.964Z,14.30
2019-02-19T10:38:23.441Z,14.70
2019-02-19T10:40:53.761Z,14.90
2019-02-19T10:43:23.520Z,15.00
2019-02-19T10:45:53.264Z,14.40
2019-02-19T10:48:24.740Z,13.80
2019-02-19T10:50:54.280Z,13.70
2019-02-19T10:53:23.742Z,14.00
2019-02-19T10:55:52.920Z,14.40
2019-02-19T10:58:23.280Z,14.40
2019-02-19T11:00:53.081Z,14.10
2019-02-19T11:03:23.483Z,13.90
2019-02-19T11:05:53.110Z,13.60
2019-02-19T11:08:22.274Z,13.90
2019-02-19T11:10:51.545Z,13.80
2019-02-19T11:13:21.036Z,13.40
2019-02-19T11:15:53.408Z,13.50
2019-02-19T11:18:28.336Z,13.80
2019-02-19T11:20:57.491Z,14.00
2019-02-19T11:23:27.691Z,14.60
2019-02-19T11:25:57.225Z,14.20
2019-02-19T11:28:26.689Z,14.30
2019-02-19T11:30:56.172Z,14.30
2019-02-19T11:33:25.335Z,14.50
2019-02-19T11:35:54.893Z,14.70
2019-02-19T11:38:24.163Z,14.50
2019-02-19T11:40:54.608Z,14.70
2019-02-19T11:43:24.110Z,15.10
2019-02-19T11:45:54.436Z,15.00
2019-02-19T11:48:24.752Z,15.10
2019-02-19T11:50:53.971Z,15.30
2019-02-19T11:53:24.186Z,15.10
2019-02-19T11:55:53.746Z,14.70
2019-02-19T11:58:24.025Z,14.40
2019-02-19T12:00:53.590Z,14.50
2019-02-19T12:03:23.017Z,14.60
2019-02-19T12:05:53.375Z,14.60
2019-02-19T12:08:22.855Z,14.80
2019-02-19T12:10:52.386Z,14.70
2019-02-19T12:13:21.912Z,14.80
2019-02-19T12:15:57.970Z,15.00
2019-02-19T12:18:27.452Z,15.00
2019-02-19T12:21:01.824Z,14.70
2019-02-19T12:23:32.478Z,14.60
2019-02-19T12:26:02.956Z,14.60
2019-02-19T12:28:32.574Z,14.60
2019-02-19T12:31:01.956Z,14.40
2019-02-19T12:33:31.421Z,14.70
2019-02-19T12:36:00.907Z,14.80
2019-02-19T12:38:30.100Z,14.80
2019-02-19T12:40:59.518Z,14.70
2019-02-19T12:43:29.853Z,14.70
2019-02-19T12:46:02.255Z,14.70
2019-02-19T12:48:36.629Z,14.50
2019-02-19T12:51:05.800Z,14.60
2019-02-19T12:53:34.986Z,14.60
2019-02-19T12:56:05.225Z,14.50
2019-02-19T12:58:34.657Z,14.70
2019-02-19T13:01:10.825Z,14.60
2019-02-19T13:03:40.314Z,14.50
2019-02-19T13:06:09.534Z,14.50
2019-02-19T13:08:38.864Z,14.20
2019-02-19T13:11:08.095Z,14.30
2019-02-19T13:13:37.267Z,14.30
2019-02-19T13:16:06.553Z,14.30
2019-02-19T13:18:36.021Z,14.10
2019-02-19T13:21:05.324Z,14.30
2019-02-19T13:23:34.756Z,14.20
2019-02-19T13:26:05.393Z,14.20
2019-02-19T13:28:35.692Z,14.10
2019-02-19T13:31:06.038Z,14.00
2019-02-19T13:33:35.524Z,13.80
2019-02-19T13:36:11.210Z,13.80
2019-02-19T13:38:40.443Z,13.80
2019-02-19T13:41:09.775Z,13.70
2019-02-19T13:43:39.387Z,13.80
2019-02-19T13:46:08.780Z,13.80
2019-02-19T13:48:39.102Z,13.90
2019-02-19T13:51:08.381Z,13.90
2019-02-19T13:53:45.473Z,13.80
2019-02-19T13:56:15.852Z,13.70
2019-02-19T13:58:45.311Z,13.60
2019-02-19T14:01:17.688Z,13.50
2019-02-19T14:03:46.895Z,13.60
2019-02-19T14:06:16.372Z,13.50
2019-02-19T14:08:47.850Z,13.40
2019-02-19T14:11:17.029Z,13.40
2019-02-19T14:13:48.080Z,13.30
2019-02-19T14:16:19.224Z,13.00
2019-02-19T14:18:51.214Z,12.90
2019-02-19T14:21:37.704Z,12.90
2019-02-19T14:24:25.107Z,12.90
2019-02-19T14:27:01.965Z,12.90
2019-02-19T14:29:33.102Z,12.90
2019-02-19T14:32:21.297Z,12.90
2019-02-19T14:34:54.999Z,12.90
2019-02-19T14:37:42.411Z,12.80
2019-02-19T14:40:13.455Z,12.70
2019-02-19T14:42:44.269Z,12.50
2019-02-19T14:45:21.077Z,12.50
2019-02-19T14:48:00.669Z,12.40
2019-02-19T14:50:34.313Z,12.30
2019-02-19T14:53:16.959Z,12.20
2019-02-19T14:56:04.164Z,12.10
2019-02-19T14:58:51.343Z,12.10
2019-02-19T15:01:34.228Z,12.00
2019-02-19T15:04:21.201Z,11.90
2019-02-19T15:07:00.777Z,11.90
2019-02-19T15:09:31.693Z,11.90
2019-02-19T15:12:02.563Z,11.80
2019-02-19T15:14:42.855Z,11.60
2019-02-19T15:17:13.698Z,11.50
2019-02-19T15:19:50.290Z,11.50
2019-02-19T15:22:33.955Z,11.30
2019-02-19T15:25:12.952Z,11.20
2019-02-19T15:27:46.672Z,11.10
2019-02-19T15:30:34.036Z,11.00
2019-02-19T15:33:21.482Z,10.90
2019-02-19T15:36:08.581Z,10.80
2019-02-19T15:38:40.688Z,10.70
2019-02-19T15:41:13.517Z,10.70
2019-02-19T15:43:44.612Z,10.60
2019-02-19T15:46:18.609Z,10.60
2019-02-19T15:49:05.922Z,10.50
2019-02-19T15:51:39.997Z,10.40
2019-02-19T15:54:18.845Z,10.30
2019-02-19T15:57:04.796Z,10.20
2019-02-19T15:59:42.462Z,10.10
2019-02-19T16:02:27.988Z,10.00
2019-02-19T16:05:01.476Z,9.90
2019-02-19T16:07:47.599Z,9.80
2019-02-19T16:10:18.398Z,9.80
2019-02-19T16:13:01.065Z,9.70
2019-02-19T16:15:41.925Z,9.60
2019-02-19T16:18:16.441Z,9.50
2019-02-19T16:20:57.032Z,9.40
2019-02-19T16:23:30.711Z,9.40
2019-02-19T16:26:02.533Z,9.30
2019-02-19T16:28:36.725Z,9.30
2019-02-19T16:31:18.468Z,9.20
2019-02-19T16:34:07.788Z,9.20
2019-02-19T16:36:50.724Z,9.20
2019-02-19T16:39:25.518Z,9.20
2019-02-19T16:41:56.321Z,9.10
2019-02-19T16:44:29.809Z,9.10
2019-02-19T16:47:03.434Z,9.00
2019-02-19T16:49:40.156Z,9.00
2019-02-19T16:52:12.160Z,9.00
2019-02-19T16:54:43.258Z,8.90
2019-02-19T16:57:17.099Z,8.80
2019-02-19T17:00:02.832Z,8.80
2019-02-19T17:02:48.743Z,8.80
2019-02-19T17:05:38.179Z,8.80
2019-02-19T17:08:12.204Z,8.80
2019-02-19T17:10:52.236Z,8.70
2019-02-19T17:13:26.187Z,8.70
2019-02-19T17:16:06.156Z,8.60
2019-02-19T17:18:43.228Z,8.50
2019-02-19T17:21:34.239Z,8.50
2019-02-19T17:24:13.951Z,8.40
2019-02-19T17:26:48.494Z,8.40
2019-02-19T17:29:20.457Z,8.30
2019-02-19T17:32:08.944Z,8.30
2019-02-19T17:34:43.856Z,8.20
2019-02-19T17:37:15.948Z,8.20
2019-02-19T17:40:03.502Z,8.20
2019-02-19T17:42:37.728Z,8.20
2019-02-19T17:45:11.866Z,8.30
2019-02-19T17:47:49.064Z,8.30
2019-02-19T17:50:37.947Z,8.40
2019-02-19T17:53:11.030Z,8.40
2019-02-19T17:55:50.591Z,8.40
2019-02-19T17:58:30.567Z,8.50
2019-02-19T18:01:07.429Z,8.50
2019-02-19T18:03:41.932Z,8.50
2019-02-19T18:06:29.027Z,8.50
2019-02-19T18:09:11.654Z,8.50
2019-02-19T18:11:48.462Z,8.50
2019-02-19T18:14:25.488Z,8.50
2019-02-19T18:16:56.487Z,8.50
2019-02-19T18:19:25.654Z,8.50
2019-02-19T18:21:55.225Z,8.50
2019-02-19T18:24:24.667Z,8.50
2019-02-19T18:26:54.527Z,8.50
2019-02-19T18:29:24.119Z,8.40
2019-02-19T18:31:53.625Z,8.40
2019-02-19T18:34:23.071Z,8.50
2019-02-19T18:36:52.327Z,8.50
2019-02-19T18:39:21.724Z,8.50
2019-02-19T18:41:51.166Z,8.50
2019-02-19T18:44:20.321Z,8.60
2019-02-19T18:46:50.735Z,8.50
2019-02-19T18:49:20.094Z,8.50
2019-02-19T18:51:49.271Z,8.50
2019-02-19T18:54:18.739Z,8.40
2019-02-19T18:56:49.847Z,8.40
2019-02-19T18:59:19.006Z,8.40
2019-02-19T19:01:50.533Z,8.40
2019-02-19T19:04:20.015Z,8.30
2019-02-19T19:06:52.895Z,8.30
2019-02-19T19:09:22.335Z,8.20
2019-02-19T19:11:52.580Z,8.20
2019-02-19T19:14:22.954Z,8.10
2019-02-19T19:16:52.473Z,8.00
2019-02-19T19:19:21.980Z,8.00
2019-02-19T19:21:51.526Z,8.00
2019-02-19T19:24:21.054Z,7.90
2019-02-19T19:26:50.539Z,8.00
2019-02-19T19:29:19.979Z,8.00
2019-02-19T19:31:49.604Z,8.00
2019-02-19T19:34:19.036Z,8.00
2019-02-19T19:36:48.478Z,7.90
2019-02-19T19:39:17.679Z,7.90
2019-02-19T19:41:47.156Z,7.80
2019-02-19T19:44:16.663Z,7.80
2019-02-19T19:46:46.223Z,7.70
2019-02-19T19:49:15.763Z,7.60
2019-02-19T19:51:45.120Z,7.60
2019-02-19T19:54:14.729Z,7.60
2019-02-19T19:56:44.161Z,7.50
2019-02-19T19:59:13.711Z,7.50
2019-02-19T20:01:44.120Z,7.50
2019-02-19T20:04:13.459Z,7.40
2019-02-19T20:06:43.778Z,7.30
2019-02-19T20:09:14.294Z,7.30
2019-02-19T20:11:43.612Z,7.40
2019-02-19T20:14:15.653Z,7.60
2019-02-19T20:16:45.241Z,7.60
2019-02-19T20:19:14.667Z,7.60
2019-02-19T20:21:43.905Z,7.50
2019-02-19T20:24:13.627Z,7.50
2019-02-19T20:26:43.241Z,7.50
2019-02-19T20:29:13.437Z,7.50
2019-02-19T20:31:43.051Z,7.40
2019-02-19T20:34:12.524Z,7.50
2019-02-19T20:36:42.058Z,7.40
2019-02-19T20:39:12.373Z,7.30
2019-02-19T20:41:43.832Z,7.40
2019-02-19T20:44:13.319Z,7.40
2019-02-19T20:46:42.531Z,7.30
2019-02-19T20:49:11.923Z,7.30
2019-02-19T20:51:41.075Z,7.30
2019-02-19T20:54:10.636Z,7.30
2019-02-19T20:56:39.943Z,7.30
2019-02-19T20:59:09.201Z,7.30
2019-02-19T21:01:38.834Z,7.30
2019-02-19T21:04:09.750Z,7.30
2019-02-19T21:06:38.928Z,7.30
2019-02-19T21:09:08.953Z,7.30
2019-02-19T21:11:38.298Z,7.30
2019-02-19T21:14:07.458Z,7.30
2019-02-19T21:16:36.681Z,7.30
2019-02-19T21:19:06.885Z,7.20
2019-02-19T21:21:44.615Z,7.20
2019-02-19T21:24:07.446Z,7.10
2019-02-19T21:26:36.606Z,7.10
2019-02-19T21:29:05.787Z,7.00
2019-02-19T21:31:35.598Z,7.00
2019-02-19T21:34:05.223Z,6.90
2019-02-19T21:36:34.739Z,6.80
2019-02-19T21:39:05.707Z,6.70
2019-02-19T21:41:34.873Z,6.70
2019-02-19T21:44:04.326Z,6.50
2019-02-19T21:46:34.521Z,6.40
2019-02-19T21:49:03.761Z,6.30
2019-02-19T21:51:33.491Z,6.20
2019-02-19T21:54:04.080Z,6.20
2019-02-19T21:56:33.956Z,6.20
2019-02-19T21:59:03.388Z,6.10
2019-02-19T22:01:38.673Z,6.10
2019-02-19T22:04:08.954Z,6.10
2019-02-19T22:06:40.539Z,6.00
2019-02-19T22:09:10.073Z,6.00
2019-02-19T22:11:39.552Z,6.00
2019-02-19T22:14:09.866Z,6.00
2019-02-19T22:16:40.221Z,6.00
2019-02-19T22:19:09.699Z,5.90
2019-02-19T22:21:43.842Z,5.90
2019-02-19T22:24:13.229Z,5.90
2019-02-19T22:26:42.711Z,5.90
2019-02-19T22:29:12.214Z,5.90
2019-02-19T22:31:41.943Z,5.90
2019-02-19T22:34:11.219Z,5.90
2019-02-19T22:36:40.378Z,5.90
2019-02-19T22:39:10.194Z,5.90
2019-02-19T22:41:39.343Z,5.80
2019-02-19T22:44:08.521Z,5.80
2019-02-19T22:46:38.048Z,5.80
2019-02-19T22:49:07.456Z,5.70
2019-02-19T22:51:36.956Z,5.70
2019-02-19T22:54:23.106Z,5.70
2019-02-19T22:56:52.361Z,5.80
2019-02-19T22:59:21.842Z,5.80
2019-02-19T23:01:52.775Z,5.80
2019-02-19T23:04:22.263Z,5.80
2019-02-19T23:06:51.657Z,5.90
2019-02-19T23:09:21.148Z,5.90
2019-02-19T23:11:50.597Z,5.90
2019-02-19T23:14:19.819Z,6.00
2019-02-19T23:16:49.250Z,5.90
2019-02-19T23:19:19.521Z,6.00
2019-02-19T23:21:48.692Z,6.00
2019-02-19T23:24:18.163Z,6.00
2019-02-19T23:26:49.280Z,6.00
2019-02-19T23:29:18.780Z,6.00
2019-02-19T23:31:49.140Z,6.00
2019-02-19T23:34:26.387Z,6.00
2019-02-19T23:36:57.151Z,6.00
2019-02-19T23:39:29.171Z,6.10
2019-02-19T23:41:58.599Z,6.00
2019-02-19T23:44:28.123Z,6.00
2019-02-19T23:47:07.924Z,6.10
2019-02-19T23:49:37.386Z,6.10
2019-02-19T23:52:06.853Z,6.00
2019-02-19T23:54:36.006Z,6.10
2019-02-19T23:57:05.494Z,6.10
2019-02-19T23:59:34.961Z,6.10
